Monticello Municipal Ellis Field
KLLQ : now visible

Airfield :











YOU CAN JOIN US ON...

 
LOGIN :

Register | Disclaimer

   EN    FR    IT 

 









Legend :    VFR   Marginal VFR   IFR   Intensive IFR   Very Intensive IFR
Visi :
Ceiling :
>= 8 km
>= 3000ft
5 to 8 km
1000 to 3000 ft
1500m to 5 km
500 to 1000 ft
800 to 1500m
200 to 500 ft
< 800m
< 200 ft
Symbols :   Thunderstorms  Fog  Heavy snow  Heavy precipitations  Wind > 20 kt






- Airport Elevation : 270 ft


KLLQ - Monticello Municipal Ellis Field

CURRENT METAR :
  • 190553Z AUTO 00000KT 9SM CLR 24/23 A3002 RMK AO2 SLP161 T02390228 10267 20233 402940233 58000

EXPIRED METARs :
  • 190453Z AUTO 00000KT 10SM CLR 24/23 A3003 RMK AO2 SLP166 T02390228
  • 190353Z AUTO 05003KT 10SM CLR 24/23 A3003 RMK AO2 SLP167 T02390233
  • 190253Z AUTO 00000KT 10SM CLR 24/23 A3002 RMK AO2 SLP162 T02390233 53002
  • 190153Z AUTO 00000KT 10SM CLR 24/23 A3001 RMK AO2 SLP160 T02440233

TAF KLLQ
Valid from the 19 at 06:00 until the 20 at 06:00 UTC


190520Z 1906/2006 VRB04KT P6SM BKN100
FM191300 10007KT P6SM BKN070
FM200000 VRB02KT P6SM BKN250
KZME FIR / North America



MET'MAP, your aeronautical weather chart ! - Copyright ORBIFLY December 2007 - Disclaimer

ORBIFLY MET'MAP TEAM :

Programming & Development : Alexandra Zaïnal
Original concept : Baudouin d'Aumeries
Technical & hardware support : Manuel Goepfert
Assistance : Marc-Olivier Méhu




SOURCES & CREDITS :

   NOAA       Earth
Advisory